CYBK

Baker Lake Airport

Baker Lake, Canada
TAF CYBK 221138Z 2212/2224 VRB03KT P6SM IC SKC TEMPO 2212/2224 28014KT RMK NXT FCST BY 221800Z
Issued Valid From Valid To
Jan-22 @ 11:38 UTC
(6 hours ago)
Jan-22 @ 12:00 UTC
(6 hours ago)
Jan-23 @ 00:00 UTC
(in 6 hours)
Jan-22 @ 12:00 to Jan-23 @ 00:00
TAF CYBK 221138Z 2212/2224 VRB03KT P6SM IC SKC
Wind Visibility Clouds Conditions
Variable at 3 knots Greater than 6 miles
  • Clear skies
  • Ice crystals
Temporary Jan-22 @ 12:00 to Jan-23 @ 00:00
TEMPO 2212/2224 28014KT RMK NXT FCST BY 221800Z
Wind
280° at 14 knots
TAF CYBK 221138Z 2212/2224 VRB03KT P6SM IC SKC TEMPO 2212/2224 28014KT RMK NXT FCST BY 221800Z
Issued Jan-22 @ 11:38 UTC
(6 hours ago)
Valid From Jan-22 @ 12:00 UTC
(6 hours ago)
Valid To Jan-23 @ 00:00 UTC
(in 6 hours)
Jan-22 @ 12:00 - Jan-23 @ 00:00
Wind Visibility
Variable at 3 knots Greater than 6 miles
Clouds
  • Clear skies
Conditions
  • Ice crystals
Temporary Jan-22 @ 12:00 - Jan-23 @ 00:00
Wind
280° at 14 knots